createdAt,value
2019-02-28T00:00:10.365Z,65.75
2019-02-28T00:01:11.697Z,65.55
2019-02-28T00:02:10.320Z,66.58
2019-02-28T00:03:10.311Z,66.50
2019-02-28T00:04:10.317Z,66.30
2019-02-28T00:05:10.287Z,66.40
2019-02-28T00:06:12.549Z,66.19
2019-02-28T00:07:10.277Z,67.22
2019-02-28T00:08:10.287Z,67.74
2019-02-28T00:09:10.241Z,67.22
2019-02-28T00:10:10.283Z,67.33
2019-02-28T00:11:10.239Z,68.25
2019-02-28T00:12:13.541Z,67.43
2019-02-28T00:13:10.256Z,67.43
2019-02-28T00:14:10.264Z,69.79
2019-02-28T00:15:10.179Z,68.87
2019-02-28T00:16:10.190Z,68.56
2019-02-28T00:17:10.183Z,68.77
2019-02-28T00:18:10.173Z,68.77
2019-02-28T00:19:10.138Z,69.79
2019-02-28T00:20:10.137Z,68.66
2019-02-28T00:21:10.125Z,66.81
2019-02-28T00:22:11.330Z,68.05
2019-02-28T00:23:10.111Z,67.25
2019-02-28T00:24:10.077Z,69.73
2019-02-28T00:25:10.093Z,68.49
2019-02-28T00:26:11.643Z,68.39
2019-02-28T00:27:10.062Z,68.08
2019-02-28T00:28:10.031Z,66.12
2019-02-28T00:29:10.035Z,67.70
2019-02-28T00:30:10.043Z,68.49
2019-02-28T00:31:14.384Z,69.42
2019-02-28T00:32:11.005Z,68.80
2019-02-28T00:33:10.004Z,69.55
2019-02-28T00:34:09.972Z,69.35
2019-02-28T00:35:13.116Z,68.32
2019-02-28T00:36:09.977Z,67.97
2019-02-28T00:37:09.961Z,68.42
2019-02-28T00:38:09.939Z,68.32
2019-02-28T00:39:09.931Z,68.93
2019-02-28T00:40:09.970Z,69.35
2019-02-28T00:41:10.243Z,68.83
2019-02-28T00:42:09.902Z,68.21
2019-02-28T00:43:09.893Z,68.52
2019-02-28T00:44:09.868Z,71.20
2019-02-28T00:45:09.865Z,69.55
2019-02-28T00:46:10.804Z,69.96
2019-02-28T00:47:09.848Z,68.52
2019-02-28T00:48:09.821Z,71.20
2019-02-28T00:49:09.833Z,71.30
2019-02-28T00:50:09.795Z,70.58
2019-02-28T00:51:09.814Z,71.20
2019-02-28T00:52:09.786Z,71.17
2019-02-28T00:53:09.781Z,69.93
2019-02-28T00:54:09.790Z,70.96
2019-02-28T00:55:09.745Z,70.07
2019-02-28T00:56:09.755Z,70.55
2019-02-28T00:57:09.752Z,71.89
2019-02-28T00:58:09.709Z,72.23
2019-02-28T00:59:09.704Z,70.55
2019-02-28T01:00:09.701Z,70.65
2019-02-28T01:01:11.597Z,70.28
2019-02-28T01:02:09.672Z,70.58
2019-02-28T01:03:09.668Z,71.20
2019-02-28T01:04:09.654Z,72.54
2019-02-28T01:05:09.663Z,71.30
2019-02-28T01:06:10.501Z,71.27
2019-02-28T01:07:09.611Z,71.82
2019-02-28T01:08:09.603Z,71.10
2019-02-28T01:09:09.590Z,71.82
2019-02-28T01:10:09.610Z,73.23
2019-02-28T01:11:10.341Z,71.99
2019-02-28T01:12:09.582Z,71.06
2019-02-28T01:13:09.545Z,72.85
2019-02-28T01:14:09.536Z,72.44
2019-02-28T01:15:10.060Z,72.13
2019-02-28T01:16:09.549Z,71.92
2019-02-28T01:17:09.518Z,71.61
2019-02-28T01:18:09.510Z,71.51
2019-02-28T01:19:10.185Z,71.61
2019-02-28T01:20:14.982Z,71.82
2019-02-28T01:21:10.455Z,71.10
2019-02-28T01:22:09.490Z,70.37
2019-02-28T01:23:09.463Z,70.28
2019-02-28T01:24:09.430Z,72.13
2019-02-28T01:25:09.458Z,72.13
2019-02-28T01:26:11.739Z,71.13
2019-02-28T01:27:09.396Z,70.82
2019-02-28T01:28:09.399Z,72.99
2019-02-28T01:29:09.388Z,71.55
2019-02-28T01:30:09.371Z,71.75
2019-02-28T01:31:11.655Z,71.55
2019-02-28T01:32:09.336Z,71.55
2019-02-28T01:33:09.346Z,72.16
2019-02-28T01:34:09.333Z,72.27
2019-02-28T01:35:09.313Z,72.47
2019-02-28T01:36:12.246Z,72.81
2019-02-28T01:37:10.287Z,72.58
2019-02-28T01:38:09.301Z,72.58
2019-02-28T01:39:09.272Z,73.30
2019-02-28T01:40:09.267Z,73.50
2019-02-28T01:41:11.205Z,73.78
2019-02-28T01:42:09.239Z,73.40
2019-02-28T01:43:09.228Z,73.19
2019-02-28T01:44:09.220Z,72.99
2019-02-28T01:45:09.936Z,73.26
2019-02-28T01:46:09.208Z,74.12
2019-02-28T01:47:09.216Z,73.57
2019-02-28T01:48:09.182Z,74.08
2019-02-28T01:49:09.168Z,73.47
2019-02-28T01:50:09.158Z,73.30
2019-02-28T01:51:09.140Z,73.78
2019-02-28T01:52:10.164Z,73.57
2019-02-28T01:53:09.126Z,72.88
2019-02-28T01:54:09.097Z,73.68
2019-02-28T01:55:09.095Z,73.71
2019-02-28T01:56:09.108Z,73.68
2019-02-28T01:57:10.039Z,73.16
2019-02-28T01:58:09.067Z,72.78
2019-02-28T01:59:09.043Z,72.99
2019-02-28T02:00:09.036Z,74.12
2019-02-28T02:01:09.026Z,74.71
2019-02-28T02:02:09.045Z,74.50
2019-02-28T02:03:09.492Z,74.08
2019-02-28T02:04:08.992Z,73.98
2019-02-28T02:05:08.985Z,73.78
2019-02-28T02:06:08.971Z,73.47
2019-02-28T02:07:08.972Z,73.50
2019-02-28T02:08:08.967Z,72.96
2019-02-28T02:09:11.029Z,72.88
2019-02-28T02:10:08.941Z,73.09
2019-02-28T02:11:08.940Z,74.43
2019-02-28T02:12:08.961Z,74.22
2019-02-28T02:13:08.887Z,73.91
2019-02-28T02:14:11.092Z,73.19
2019-02-28T02:15:08.875Z,74.02
2019-02-28T02:16:08.865Z,73.81
2019-02-28T02:17:08.879Z,74.74
2019-02-28T02:18:09.485Z,74.22
2019-02-28T02:19:08.846Z,74.43
2019-02-28T02:20:08.832Z,73.09
2019-02-28T02:21:08.823Z,72.99
2019-02-28T02:22:09.502Z,73.71
2019-02-28T02:23:08.790Z,74.22
2019-02-28T02:24:08.816Z,74.02
2019-02-28T02:25:08.769Z,73.50
2019-02-28T02:26:11.297Z,73.40
2019-02-28T02:27:08.761Z,72.92
2019-02-28T02:28:08.736Z,73.30
2019-02-28T02:29:08.722Z,75.05
2019-02-28T02:30:13.290Z,74.67
2019-02-28T02:31:09.723Z,73.74
2019-02-28T02:32:08.686Z,73.12
2019-02-28T02:33:13.606Z,71.47
2019-02-28T02:34:09.672Z,73.22
2019-02-28T02:35:08.659Z,74.57
2019-02-28T02:36:08.662Z,75.09
2019-02-28T02:37:08.637Z,75.09
2019-02-28T02:38:08.624Z,75.09
2019-02-28T02:39:08.616Z,75.29
2019-02-28T02:40:08.606Z,74.67
2019-02-28T02:41:08.626Z,74.46
2019-02-28T02:42:11.380Z,75.09
2019-02-28T02:43:08.582Z,75.60
2019-02-28T02:44:08.554Z,74.98
2019-02-28T02:45:08.567Z,75.09
2019-02-28T02:46:08.538Z,75.18
2019-02-28T02:47:08.544Z,75.01
2019-02-28T02:48:08.537Z,74.77
2019-02-28T02:49:08.516Z,75.29
2019-02-28T02:50:08.496Z,76.04
2019-02-28T02:51:10.996Z,77.49
2019-02-28T02:52:08.475Z,76.25
2019-02-28T02:53:08.491Z,77.49
2019-02-28T02:54:08.449Z,77.70
2019-02-28T02:55:08.487Z,76.73
2019-02-28T02:56:08.453Z,76.25
2019-02-28T02:57:08.461Z,76.67
2019-02-28T02:58:08.428Z,77.49
2019-02-28T02:59:08.415Z,76.87
2019-02-28T03:00:13.363Z,78.52
2019-02-28T03:01:09.386Z,78.01
2019-02-28T03:02:08.368Z,76.04
2019-02-28T03:03:08.354Z,77.08
2019-02-28T03:04:08.349Z,76.56
2019-02-28T03:05:08.345Z,76.39
2019-02-28T03:06:12.103Z,75.36
2019-02-28T03:07:09.317Z,75.57
2019-02-28T03:08:08.309Z,76.08
2019-02-28T03:09:10.013Z,76.50
2019-02-28T03:10:08.291Z,75.46
2019-02-28T03:11:08.277Z,76.18
2019-02-28T03:12:08.267Z,77.04
2019-02-28T03:13:08.273Z,75.19
2019-02-28T03:14:08.273Z,75.49
2019-02-28T03:15:08.225Z,74.88
2019-02-28T03:16:08.216Z,75.60
2019-02-28T03:17:11.540Z,75.32
2019-02-28T03:18:08.222Z,75.43
2019-02-28T03:19:08.193Z,75.22
2019-02-28T03:20:08.870Z,75.32
2019-02-28T03:21:08.159Z,74.60
2019-02-28T03:22:08.165Z,75.12
2019-02-28T03:23:08.169Z,76.77
2019-02-28T03:24:14.694Z,75.32
2019-02-28T03:25:09.120Z,77.81
2019-02-28T03:26:08.113Z,77.74
2019-02-28T03:27:08.098Z,77.53
2019-02-28T03:28:08.090Z,78.63
2019-02-28T03:29:08.985Z,78.53
2019-02-28T03:30:08.080Z,78.42
2019-02-28T03:31:14.168Z,77.53
2019-02-28T03:32:09.049Z,77.12
2019-02-28T03:33:08.050Z,75.26
2019-02-28T03:34:13.003Z,75.46
2019-02-28T03:35:09.025Z,78.98
2019-02-28T03:36:08.036Z,79.29
2019-02-28T03:37:08.028Z,79.39
2019-02-28T03:38:11.672Z,79.08
2019-02-28T03:39:07.985Z,78.67
2019-02-28T03:40:08.012Z,76.91
2019-02-28T03:41:07.959Z,78.67
2019-02-28T03:42:07.992Z,78.46
2019-02-28T03:43:07.927Z,78.46
2019-02-28T03:44:07.913Z,78.88
2019-02-28T03:45:07.902Z,78.67
2019-02-28T03:46:10.397Z,78.67
2019-02-28T03:47:07.884Z,77.84
2019-02-28T03:48:07.884Z,78.46
2019-02-28T03:49:11.549Z,77.22
2019-02-28T03:50:07.848Z,77.33
2019-02-28T03:51:07.860Z,77.64
2019-02-28T03:52:07.838Z,76.91
2019-02-28T03:53:07.813Z,75.36
2019-02-28T03:54:07.820Z,75.78
2019-02-28T03:55:07.795Z,77.22
2019-02-28T03:56:07.798Z,76.29
2019-02-28T03:57:07.783Z,77.53
2019-02-28T03:58:07.771Z,76.70
2019-02-28T03:59:07.754Z,78.56
2019-02-28T04:00:07.764Z,77.77
2019-02-28T04:01:09.453Z,78.91
2019-02-28T04:02:07.731Z,79.12
2019-02-28T04:03:07.723Z,78.70
2019-02-28T04:04:12.188Z,77.56
2019-02-28T04:05:07.732Z,76.74
2019-02-28T04:06:07.683Z,77.47
2019-02-28T04:07:07.655Z,78.60
2019-02-28T04:08:07.680Z,78.74
2019-02-28T04:09:08.900Z,78.29
2019-02-28T04:10:07.640Z,78.29
2019-02-28T04:11:07.640Z,77.15
2019-02-28T04:12:08.995Z,77.09
2019-02-28T04:13:07.589Z,78.33
2019-02-28T04:14:07.621Z,77.70
2019-02-28T04:15:10.173Z,76.98
2019-02-28T04:16:09.429Z,77.09
2019-02-28T04:17:07.556Z,77.91
2019-02-28T04:18:08.576Z,77.84
2019-02-28T04:19:07.540Z,77.50
2019-02-28T04:20:07.514Z,76.78
2019-02-28T04:21:10.309Z,78.67
2019-02-28T04:22:07.511Z,78.74
2019-02-28T04:23:07.532Z,78.64
2019-02-28T04:24:12.460Z,78.64
2019-02-28T04:25:08.460Z,78.53
2019-02-28T04:26:07.469Z,78.47
2019-02-28T04:27:07.916Z,78.53
2019-02-28T04:28:07.450Z,78.88
2019-02-28T04:29:07.428Z,77.22
2019-02-28T04:30:08.403Z,77.22
2019-02-28T04:31:07.416Z,77.12
2019-02-28T04:32:07.401Z,77.12
2019-02-28T04:33:07.401Z,78.99
2019-02-28T04:34:13.014Z,78.99
2019-02-28T04:35:08.389Z,78.64
2019-02-28T04:36:07.346Z,79.19
2019-02-28T04:37:08.586Z,79.81
2019-02-28T04:38:07.331Z,79.19
2019-02-28T04:39:07.323Z,78.99
2019-02-28T04:40:07.341Z,78.78
2019-02-28T04:41:07.292Z,78.61
2019-02-28T04:42:07.298Z,78.99
2019-02-28T04:43:10.008Z,78.78
2019-02-28T04:44:07.264Z,78.78
2019-02-28T04:45:07.266Z,79.74
2019-02-28T04:46:07.261Z,80.05
2019-02-28T04:47:07.662Z,79.02
2019-02-28T04:48:07.235Z,79.02
2019-02-28T04:49:07.217Z,79.02
2019-02-28T04:50:07.217Z,78.92
2019-02-28T04:51:07.180Z,79.64
2019-02-28T04:52:07.171Z,80.12
2019-02-28T04:53:07.209Z,81.92
2019-02-28T04:54:07.170Z,81.16
2019-02-28T04:55:07.174Z,80.74
2019-02-28T04:56:11.013Z,83.54
2019-02-28T04:57:07.134Z,83.23
2019-02-28T04:58:07.104Z,83.75
2019-02-28T04:59:07.117Z,83.64
2019-02-28T05:00:07.100Z,83.23
2019-02-28T05:01:09.258Z,82.71
2019-02-28T05:02:08.067Z,83.54
2019-02-28T05:03:07.057Z,83.85
2019-02-28T05:04:07.069Z,82.09
2019-02-28T05:05:12.205Z,82.09
2019-02-28T05:06:08.028Z,81.26
2019-02-28T05:07:07.063Z,81.47
2019-02-28T05:08:07.012Z,81.51
2019-02-28T05:09:07.019Z,81.88
2019-02-28T05:10:06.985Z,82.19
2019-02-28T05:11:06.963Z,81.88
2019-02-28T05:12:06.960Z,81.78
2019-02-28T05:13:06.978Z,82.60
2019-02-28T05:14:06.957Z,82.60
2019-02-28T05:15:06.959Z,82.50
2019-02-28T05:16:09.370Z,82.09
2019-02-28T05:17:07.910Z,81.61
2019-02-28T05:18:06.892Z,81.92
2019-02-28T05:19:06.903Z,81.85
2019-02-28T05:20:07.346Z,81.40
2019-02-28T05:21:06.886Z,81.71
2019-02-28T05:22:06.870Z,81.44
2019-02-28T05:23:06.842Z,82.27
2019-02-28T05:24:07.732Z,81.54
2019-02-28T05:25:06.824Z,81.23
2019-02-28T05:26:06.821Z,81.34
2019-02-28T05:27:06.802Z,81.13
2019-02-28T05:28:07.550Z,81.13
2019-02-28T05:29:06.794Z,81.23
2019-02-28T05:30:06.777Z,81.65
2019-02-28T05:31:06.770Z,81.13
2019-02-28T05:32:06.765Z,82.58
2019-02-28T05:33:07.461Z,82.06
2019-02-28T05:34:06.743Z,82.17
2019-02-28T05:35:06.740Z,81.96
2019-02-28T05:36:06.702Z,82.58
2019-02-28T05:37:12.268Z,82.17
2019-02-28T05:38:07.688Z,84.34
2019-02-28T05:39:06.673Z,83.93
2019-02-28T05:40:06.951Z,83.51
2019-02-28T05:41:06.669Z,82.89
2019-02-28T05:42:06.642Z,82.58
2019-02-28T05:43:06.631Z,82.48
2019-02-28T05:44:07.252Z,83.26
2019-02-28T05:45:06.604Z,84.34
2019-02-28T05:46:06.600Z,82.89
2019-02-28T05:47:06.599Z,84.09
2019-02-28T05:48:06.578Z,84.13
2019-02-28T05:49:08.689Z,84.72
2019-02-28T05:50:06.545Z,84.41
2019-02-28T05:51:06.545Z,84.55
2019-02-28T05:52:06.551Z,84.23
2019-02-28T05:53:09.289Z,83.72
2019-02-28T05:54:06.522Z,84.13
2019-02-28T05:55:06.498Z,84.34
2019-02-28T05:56:06.484Z,84.86
2019-02-28T05:57:08.060Z,84.75
2019-02-28T05:58:06.478Z,85.06
2019-02-28T05:59:06.459Z,85.75
2019-02-28T06:00:06.466Z,84.92
2019-02-28T06:01:08.687Z,85.27
2019-02-28T06:02:07.415Z,84.96
2019-02-28T06:03:06.427Z,85.58
2019-02-28T06:04:06.423Z,84.55
2019-02-28T06:05:08.379Z,85.06
2019-02-28T06:06:08.124Z,85.38
2019-02-28T06:07:06.365Z,85.38
2019-02-28T06:08:06.367Z,85.48
2019-02-28T06:09:06.347Z,84.44
2019-02-28T06:10:06.336Z,83.93
2019-02-28T06:11:06.337Z,85.58
2019-02-28T06:12:06.641Z,84.65
2019-02-28T06:13:06.329Z,85.38
2019-02-28T06:14:06.298Z,85.48
2019-02-28T06:15:06.279Z,84.55
2019-02-28T06:16:11.413Z,84.23
2019-02-28T06:17:07.265Z,84.44
2019-02-28T06:18:06.257Z,83.83
2019-02-28T06:19:08.365Z,83.62
2019-02-28T06:20:06.235Z,86.21
2019-02-28T06:21:06.217Z,85.11
2019-02-28T06:22:06.205Z,84.96
2019-02-28T06:23:09.111Z,86.25
2019-02-28T06:24:06.196Z,87.14
2019-02-28T06:25:06.199Z,86.25
2019-02-28T06:26:06.187Z,86.21
2019-02-28T06:27:06.648Z,87.35
2019-02-28T06:28:06.144Z,87.45
2019-02-28T06:29:06.136Z,87.04
2019-02-28T06:30:08.698Z,86.10
2019-02-28T06:31:06.128Z,85.48
2019-02-28T06:32:06.117Z,85.48
2019-02-28T06:33:06.090Z,86.52
2019-02-28T06:34:08.611Z,86.47
2019-02-28T06:35:06.082Z,85.03
2019-02-28T06:36:06.059Z,84.92
2019-02-28T06:37:06.117Z,83.54
2019-02-28T06:38:06.857Z,83.50
2019-02-28T06:39:06.023Z,83.71
2019-02-28T06:40:06.017Z,82.53
2019-02-28T06:41:07.694Z,81.25
2019-02-28T06:42:06.012Z,80.32
2019-02-28T06:43:05.989Z,78.84
2019-02-28T06:44:05.972Z,78.59
2019-02-28T06:45:05.959Z,78.05
2019-02-28T06:46:08.490Z,76.98
2019-02-28T06:47:05.983Z,75.29
2019-02-28T06:48:05.938Z,76.08
2019-02-28T06:49:07.207Z,76.35
2019-02-28T06:50:05.908Z,75.63
2019-02-28T06:51:05.893Z,73.23
2019-02-28T06:52:05.882Z,71.65
2019-02-28T06:53:05.884Z,72.96
2019-02-28T06:54:07.955Z,70.76
2019-02-28T06:55:05.867Z,71.24
2019-02-28T06:56:05.855Z,70.42
2019-02-28T06:57:05.838Z,71.75
2019-02-28T06:58:05.865Z,70.28
2019-02-28T06:59:05.826Z,69.64
2019-02-28T07:00:05.830Z,69.64
2019-02-28T07:01:05.796Z,68.27
2019-02-28T07:02:05.790Z,68.03
2019-02-28T07:03:05.800Z,67.28
2019-02-28T07:04:05.787Z,67.25
2019-02-28T07:05:05.759Z,65.99
2019-02-28T07:06:05.730Z,66.60
2019-02-28T07:07:07.374Z,66.50
2019-02-28T07:08:05.715Z,67.05
2019-02-28T07:09:05.711Z,68.51
2019-02-28T07:10:06.255Z,68.41
2019-02-28T07:11:05.706Z,68.27
2019-02-28T07:12:05.669Z,67.40
2019-02-28T07:13:05.715Z,65.72
2019-02-28T07:14:05.661Z,63.95
2019-02-28T07:15:05.679Z,63.69
2019-02-28T07:16:05.662Z,63.04
2019-02-28T07:17:07.751Z,62.74
2019-02-28T07:18:06.602Z,61.69
2019-02-28T07:19:05.595Z,61.49
2019-02-28T07:20:05.580Z,60.30
2019-02-28T07:21:07.878Z,59.59
2019-02-28T07:22:05.581Z,59.66
2019-02-28T07:23:05.548Z,59.46
2019-02-28T07:24:05.549Z,58.54
2019-02-28T07:25:05.521Z,59.03
2019-02-28T07:26:05.517Z,58.69
2019-02-28T07:27:05.530Z,58.49
2019-02-28T07:28:05.497Z,57.98
2019-02-28T07:29:11.062Z,58.18
2019-02-28T07:30:06.474Z,57.65
2019-02-28T07:31:05.460Z,57.44
2019-02-28T07:32:05.454Z,57.34
2019-02-28T07:33:09.575Z,57.75
2019-02-28T07:34:05.426Z,57.24
2019-02-28T07:35:05.418Z,57.24
2019-02-28T07:36:05.695Z,57.11
2019-02-28T07:37:05.390Z,57.31
2019-02-28T07:38:05.404Z,56.20
2019-02-28T07:39:05.385Z,55.99
2019-02-28T07:40:05.373Z,56.70
2019-02-28T07:41:05.352Z,56.83
2019-02-28T07:42:05.369Z,57.06
2019-02-28T07:43:05.337Z,56.76
2019-02-28T07:44:05.317Z,57.78
2019-02-28T07:45:05.315Z,57.19
2019-02-28T07:46:07.699Z,58.44
2019-02-28T07:47:05.297Z,58.64
2019-02-28T07:48:05.281Z,59.46
2019-02-28T07:49:05.265Z,59.23
2019-02-28T07:50:07.753Z,59.66
2019-02-28T07:51:06.233Z,59.53
2019-02-28T07:52:05.235Z,59.12
2019-02-28T07:53:08.426Z,58.31
2019-02-28T07:54:05.230Z,58.03
2019-02-28T07:55:05.205Z,58.78
2019-02-28T07:56:06.935Z,59.89
2019-02-28T07:57:05.188Z,59.97
2019-02-28T07:58:05.163Z,60.07
2019-02-28T07:59:05.562Z,58.03
2019-02-28T08:00:05.147Z,58.67
2019-02-28T08:01:05.140Z,60.23
2019-02-28T08:02:05.124Z,59.87
2019-02-28T08:03:05.111Z,60.14
2019-02-28T08:04:05.107Z,59.84
2019-02-28T08:05:05.311Z,59.12
2019-02-28T08:06:05.799Z,57.98
2019-02-28T08:07:05.061Z,57.57
2019-02-28T08:08:05.052Z,57.24
2019-02-28T08:09:05.527Z,57.44
2019-02-28T08:10:05.034Z,57.04
2019-02-28T08:11:05.016Z,57.24
2019-02-28T08:12:05.010Z,56.93
2019-02-28T08:13:04.997Z,56.83
2019-02-28T08:14:04.982Z,56.93
2019-02-28T08:15:04.992Z,57.04
2019-02-28T08:16:04.973Z,57.01
2019-02-28T08:17:05.478Z,57.21
2019-02-28T08:18:05.862Z,57.29
2019-02-28T08:19:04.928Z,56.07
2019-02-28T08:20:04.932Z,54.85
2019-02-28T08:21:05.356Z,56.35
2019-02-28T08:22:04.894Z,57.70
2019-02-28T08:23:04.909Z,58.11
2019-02-28T08:24:05.394Z,57.44
2019-02-28T08:25:07.816Z,56.20
2019-02-28T08:26:04.853Z,56.81
2019-02-28T08:27:04.853Z,56.88
2019-02-28T08:28:04.837Z,56.04
2019-02-28T08:29:07.837Z,56.29
2019-02-28T08:30:05.837Z,54.74
2019-02-28T08:31:04.802Z,55.35
2019-02-28T08:32:08.032Z,54.39
2019-02-28T08:33:04.787Z,53.63
2019-02-28T08:34:04.768Z,52.11
2019-02-28T08:35:04.787Z,52.26
2019-02-28T08:36:08.503Z,51.14
2019-02-28T08:37:05.744Z,52.69
2019-02-28T08:38:06.715Z,52.13
2019-02-28T08:39:06.070Z,50.89
2019-02-28T08:40:04.715Z,51.15
2019-02-28T08:41:06.463Z,49.30
2019-02-28T08:42:04.971Z,47.56
2019-02-28T08:43:04.669Z,46.73
2019-02-28T08:44:04.660Z,48.53
2019-02-28T08:45:04.653Z,46.73
2019-02-28T08:46:09.667Z,47.89
2019-02-28T08:47:05.638Z,49.05
2019-02-28T08:48:04.639Z,50.21
2019-02-28T08:49:07.232Z,50.31
2019-02-28T08:50:04.602Z,51.70
2019-02-28T08:51:04.589Z,48.93
2019-02-28T08:52:05.645Z,48.37
2019-02-28T08:53:04.566Z,47.56
2019-02-28T08:54:06.067Z,47.85
2019-02-28T08:55:07.041Z,47.47
2019-02-28T08:56:04.538Z,48.80
2019-02-28T08:57:04.527Z,48.82
2019-02-28T08:58:06.479Z,48.44
2019-02-28T08:59:11.597Z,50.51
2019-02-28T09:00:05.500Z,51.42
2019-02-28T09:01:05.354Z,51.04
2019-02-28T09:02:04.474Z,51.57
2019-02-28T09:03:04.483Z,51.50
2019-02-28T09:04:05.692Z,52.08
2019-02-28T09:05:04.452Z,51.90
2019-02-28T09:06:07.240Z,52.00
2019-02-28T09:07:04.417Z,52.61
2019-02-28T09:08:04.404Z,52.51
2019-02-28T09:09:04.406Z,52.59
2019-02-28T09:10:06.762Z,51.88
2019-02-28T09:11:05.381Z,52.18
2019-02-28T09:12:04.356Z,51.95
2019-02-28T09:13:07.758Z,52.15
2019-02-28T09:14:04.341Z,52.94
2019-02-28T09:15:04.327Z,52.64
2019-02-28T09:16:04.863Z,52.33
2019-02-28T09:17:04.318Z,52.15
2019-02-28T09:18:04.288Z,53.37
2019-02-28T09:19:04.285Z,52.86
2019-02-28T09:20:04.280Z,53.58
2019-02-28T09:21:04.264Z,53.25
2019-02-28T09:22:04.252Z,52.64
2019-02-28T09:23:06.255Z,53.14
2019-02-28T09:24:04.243Z,53.04
2019-02-28T09:25:04.215Z,52.20
2019-02-28T09:26:04.198Z,52.66
2019-02-28T09:27:04.952Z,52.76
2019-02-28T09:28:04.187Z,52.86
2019-02-28T09:29:04.187Z,52.46
2019-02-28T09:30:04.169Z,53.09
2019-02-28T09:31:04.954Z,53.50
2019-02-28T09:32:04.138Z,54.11
2019-02-28T09:33:04.129Z,53.80
2019-02-28T09:34:04.125Z,53.39
2019-02-28T09:35:06.059Z,53.58
2019-02-28T09:36:05.091Z,53.88
2019-02-28T09:37:04.083Z,53.88
2019-02-28T09:38:07.619Z,53.58
2019-02-28T09:39:05.071Z,53.98
2019-02-28T09:40:04.071Z,54.08
2019-02-28T09:41:04.541Z,53.88
2019-02-28T09:42:04.046Z,53.98
2019-02-28T09:43:04.021Z,54.18
2019-02-28T09:44:04.006Z,54.18
2019-02-28T09:45:07.652Z,54.21
2019-02-28T09:46:03.989Z,54.51
2019-02-28T09:47:03.969Z,55.02
2019-02-28T09:48:03.962Z,55.02
2019-02-28T09:49:05.563Z,54.18
2019-02-28T09:50:03.936Z,53.96
2019-02-28T09:51:03.951Z,54.05
2019-02-28T09:52:06.481Z,53.83
2019-02-28T09:53:03.912Z,54.13
2019-02-28T09:54:03.902Z,54.36
2019-02-28T09:55:03.876Z,54.44
2019-02-28T09:56:08.912Z,53.52
2019-02-28T09:57:04.856Z,53.83
2019-02-28T09:58:03.846Z,53.52
2019-02-28T09:59:03.971Z,53.42
2019-02-28T10:00:03.846Z,53.22
2019-02-28T10:01:03.817Z,54.74
2019-02-28T10:02:08.079Z,53.72
2019-02-28T10:03:03.802Z,54.36
2019-02-28T10:04:03.796Z,54.36
2019-02-28T10:05:06.591Z,54.57
2019-02-28T10:06:03.762Z,54.59
2019-02-28T10:07:03.742Z,54.97
2019-02-28T10:08:03.757Z,54.79
2019-02-28T10:09:03.723Z,54.69
2019-02-28T10:10:03.711Z,56.13
2019-02-28T10:11:03.712Z,55.53
2019-02-28T10:12:04.667Z,55.91
2019-02-28T10:13:03.680Z,54.99
2019-02-28T10:14:03.675Z,55.40
2019-02-28T10:15:07.254Z,55.71
2019-02-28T10:16:03.660Z,55.30
2019-02-28T10:17:03.660Z,56.62
2019-02-28T10:18:04.384Z,56.18
2019-02-28T10:19:05.194Z,56.49
2019-02-28T10:20:03.603Z,55.96
2019-02-28T10:21:03.592Z,56.36
2019-02-28T10:22:03.618Z,55.96
2019-02-28T10:23:03.588Z,55.65
2019-02-28T10:24:03.568Z,54.53
2019-02-28T10:25:06.525Z,54.44
2019-02-28T10:26:03.554Z,55.35
2019-02-28T10:27:03.626Z,55.55
2019-02-28T10:28:03.546Z,54.74
2019-02-28T10:29:04.503Z,54.33
2019-02-28T10:30:03.503Z,54.33
2019-02-28T10:31:03.497Z,54.53
2019-02-28T10:32:06.139Z,54.94
2019-02-28T10:33:04.480Z,54.94
2019-02-28T10:34:03.450Z,54.33
2019-02-28T10:35:03.447Z,54.13
2019-02-28T10:36:03.444Z,54.11
2019-02-28T10:37:04.359Z,53.60
2019-02-28T10:38:03.427Z,53.60
2019-02-28T10:39:05.867Z,53.91
2019-02-28T10:40:05.133Z,53.91
2019-02-28T10:41:03.425Z,54.21
2019-02-28T10:42:05.231Z,53.80
2019-02-28T10:43:03.379Z,54.21
2019-02-28T10:44:03.349Z,54.92
2019-02-28T10:45:03.588Z,54.28
2019-02-28T10:46:03.329Z,54.08
2019-02-28T10:47:03.319Z,53.98
2019-02-28T10:48:04.126Z,53.88
2019-02-28T10:49:03.310Z,53.78
2019-02-28T10:50:03.296Z,53.47
2019-02-28T10:51:12.623Z,54.16
2019-02-28T10:52:04.267Z,54.08
2019-02-28T10:53:05.621Z,54.16
2019-02-28T10:54:03.250Z,53.96
2019-02-28T10:55:03.229Z,54.26
2019-02-28T10:56:03.220Z,53.75
2019-02-28T10:57:05.954Z,53.75
2019-02-28T10:58:03.225Z,53.96
2019-02-28T10:59:03.181Z,53.96
2019-02-28T11:00:03.174Z,54.56
2019-02-28T11:01:07.709Z,54.66
2019-02-28T11:02:04.145Z,53.96
2019-02-28T11:03:03.156Z,54.49
2019-02-28T11:04:04.504Z,55.32
2019-02-28T11:05:03.117Z,55.93
2019-02-28T11:06:03.442Z,55.83
2019-02-28T11:07:03.230Z,55.93
2019-02-28T11:08:03.131Z,55.02
2019-02-28T11:09:03.130Z,54.92
2019-02-28T11:10:03.091Z,55.02
2019-02-28T11:11:03.048Z,54.99
2019-02-28T11:12:03.044Z,54.49
2019-02-28T11:13:03.034Z,54.89
2019-02-28T11:14:03.914Z,54.59
2019-02-28T11:15:03.045Z,54.76
2019-02-28T11:16:03.003Z,54.16
2019-02-28T11:17:02.987Z,54.44
2019-02-28T11:18:08.550Z,53.70
2019-02-28T11:19:03.964Z,53.09
2019-02-28T11:20:02.979Z,52.69
2019-02-28T11:21:02.966Z,53.19
2019-02-28T11:22:04.938Z,53.40
2019-02-28T11:23:02.922Z,53.52
2019-02-28T11:24:02.934Z,53.52
2019-02-28T11:25:02.914Z,54.56
2019-02-28T11:26:02.920Z,53.75
2019-02-28T11:27:02.957Z,53.45
2019-02-28T11:28:02.891Z,53.42
2019-02-28T11:29:03.848Z,53.42
2019-02-28T11:30:02.878Z,52.31
2019-02-28T11:31:02.883Z,52.92
2019-02-28T11:32:02.818Z,52.94
2019-02-28T11:33:04.514Z,53.37
2019-02-28T11:34:02.796Z,53.37
2019-02-28T11:35:02.792Z,54.28
2019-02-28T11:36:02.779Z,53.98
2019-02-28T11:37:05.475Z,54.16
2019-02-28T11:38:04.994Z,53.05
2019-02-28T11:39:02.764Z,53.63
2019-02-28T11:40:05.418Z,52.72
2019-02-28T11:41:03.720Z,52.81
2019-02-28T11:42:02.760Z,53.42
2019-02-28T11:43:03.857Z,53.50
2019-02-28T11:44:02.721Z,52.59
2019-02-28T11:45:02.674Z,52.26
2019-02-28T11:46:03.097Z,52.26
2019-02-28T11:47:02.669Z,52.08
2019-02-28T11:48:02.641Z,52.59
2019-02-28T11:49:02.650Z,53.30
2019-02-28T11:50:04.644Z,53.09
2019-02-28T11:51:02.619Z,52.39
2019-02-28T11:52:02.615Z,52.28
2019-02-28T11:53:05.776Z,52.31
2019-02-28T11:54:02.578Z,52.11
2019-02-28T11:55:02.558Z,52.41
2019-02-28T11:56:02.553Z,51.70
2019-02-28T11:57:03.355Z,51.78
2019-02-28T11:58:02.543Z,51.05
2019-02-28T11:59:02.528Z,51.86
2019-02-28T12:00:02.509Z,51.55
2019-02-28T12:01:02.504Z,52.14
2019-02-28T12:02:02.503Z,51.32
2019-02-28T12:03:02.489Z,52.03
2019-02-28T12:04:02.475Z,50.70
2019-02-28T12:05:02.449Z,51.40
2019-02-28T12:06:02.434Z,50.78
2019-02-28T12:07:02.433Z,50.16
2019-02-28T12:08:02.435Z,50.87
2019-02-28T12:09:02.412Z,50.07
2019-02-28T12:10:02.391Z,50.87
2019-02-28T12:11:02.885Z,50.75
2019-02-28T12:12:02.374Z,49.84
2019-02-28T12:13:02.378Z,49.72
2019-02-28T12:14:02.361Z,50.04
2019-02-28T12:15:02.764Z,50.04
2019-02-28T12:16:02.348Z,50.04
2019-02-28T12:17:02.320Z,49.96
2019-02-28T12:18:04.754Z,50.57
2019-02-28T12:19:02.340Z,50.67
2019-02-28T12:20:03.794Z,50.45
2019-02-28T12:21:04.876Z,50.78
2019-02-28T12:22:02.270Z,51.18
2019-02-28T12:23:02.256Z,50.35
2019-02-28T12:24:02.304Z,50.47
2019-02-28T12:25:04.585Z,51.18
2019-02-28T12:26:03.289Z,51.25
2019-02-28T12:27:04.103Z,51.25
2019-02-28T12:28:02.928Z,50.75
2019-02-28T12:29:02.199Z,50.95
2019-02-28T12:30:02.192Z,51.76
2019-02-28T12:31:02.204Z,51.68
2019-02-28T12:32:02.171Z,51.86
2019-02-28T12:33:02.154Z,51.66
2019-02-28T12:34:02.168Z,51.98
2019-02-28T12:35:02.502Z,51.68
2019-02-28T12:36:02.121Z,51.58
2019-02-28T12:37:02.103Z,51.56
2019-02-28T12:38:02.106Z,51.96
2019-02-28T12:39:02.317Z,51.96
2019-02-28T12:40:02.083Z,51.18
2019-02-28T12:41:02.067Z,52.06
2019-02-28T12:42:02.043Z,51.56
2019-02-28T12:43:02.065Z,51.86
2019-02-28T12:44:02.051Z,51.15
2019-02-28T12:45:02.027Z,51.56
2019-02-28T12:46:02.018Z,51.53
2019-02-28T12:47:03.324Z,51.53
2019-02-28T12:48:01.977Z,51.93
2019-02-28T12:49:01.980Z,51.43
2019-02-28T12:50:01.957Z,51.73
2019-02-28T12:51:02.292Z,52.04
2019-02-28T12:52:02.007Z,51.81